createdAt,value
2023-01-09T00:02:10.685Z,100037.63
2023-01-09T00:05:16.066Z,100018.97
2023-01-09T00:08:19.312Z,100014.00
2023-01-09T00:11:21.823Z,100036.66
2023-01-09T00:14:24.347Z,100032.09
2023-01-09T00:17:27.051Z,100025.91
2023-01-09T00:20:29.486Z,100027.09
2023-01-09T00:23:32.129Z,100038.00
2023-01-09T00:26:34.648Z,99978.63
2023-01-09T00:29:39.021Z,100017.94
2023-01-09T00:32:41.419Z,100002.59
2023-01-09T00:35:43.829Z,100025.34
2023-01-09T00:38:46.536Z,100014.28
2023-01-09T00:41:53.183Z,100026.59
2023-01-09T00:45:02.652Z,99990.94
2023-01-09T00:48:12.104Z,100015.22
2023-01-09T00:51:15.025Z,100014.81
2023-01-09T00:54:19.251Z,100015.38
2023-01-09T00:57:21.719Z,99995.09
2023-01-09T01:00:24.313Z,100008.00
2023-01-09T01:03:26.822Z,100005.22
2023-01-09T01:06:47.579Z,99996.88
2023-01-09T01:09:49.967Z,99996.59
2023-01-09T01:12:53.126Z,99971.22
2023-01-09T01:15:55.497Z,99968.56
2023-01-09T01:18:57.950Z,99982.94
2023-01-09T01:22:00.373Z,99984.69
2023-01-09T01:25:04.139Z,99981.03
2023-01-09T01:28:07.347Z,99986.16
2023-01-09T01:31:16.937Z,99972.72
2023-01-09T01:34:19.620Z,99977.78
2023-01-09T01:37:22.898Z,99970.72
2023-01-09T01:40:25.709Z,99989.94
2023-01-09T01:43:28.808Z,99980.25
2023-01-09T01:46:32.833Z,99973.25
2023-01-09T01:49:35.358Z,99952.19
2023-01-09T01:52:38.436Z,99931.06
2023-01-09T01:56:17.114Z,99972.31
2023-01-09T01:59:25.184Z,99963.81
2023-01-09T02:02:31.130Z,99912.19
2023-01-09T02:05:35.137Z,99941.28
2023-01-09T02:08:37.881Z,99948.44
2023-01-09T02:11:48.542Z,99936.59
2023-01-09T02:15:05.286Z,99921.81
2023-01-09T02:18:25.649Z,99941.09
2023-01-09T02:21:42.813Z,99941.34
2023-01-09T02:25:16.797Z,99939.66
2023-01-09T02:29:00.820Z,99928.09
2023-01-09T02:32:18.228Z,99928.94
2023-01-09T02:35:28.329Z,99918.38
2023-01-09T02:38:48.965Z,99935.91
2023-01-09T02:42:04.201Z,99932.09
2023-01-09T02:45:06.802Z,99912.84
2023-01-09T02:48:11.513Z,99908.44
2023-01-09T02:51:24.298Z,99929.72
2023-01-09T02:55:09.856Z,99927.34
2023-01-09T02:58:22.567Z,99931.47
2023-01-09T03:01:48.136Z,99935.00
2023-01-09T03:05:01.874Z,99906.25
2023-01-09T03:08:10.280Z,99903.78
2023-01-09T03:11:13.017Z,99924.84
2023-01-09T03:14:20.897Z,99923.22
2023-01-09T03:17:32.527Z,99896.13
2023-01-09T03:20:35.480Z,99900.31
2023-01-09T03:23:58.183Z,99891.16
2023-01-09T03:27:00.754Z,99897.81
2023-01-09T03:30:03.348Z,99900.56
2023-01-09T03:33:07.401Z,99915.03
2023-01-09T03:36:11.356Z,99898.72
2023-01-09T03:39:13.744Z,99904.56
2023-01-09T03:42:16.629Z,99884.19
2023-01-09T03:45:19.354Z,99901.94
2023-01-09T03:48:21.913Z,99898.44
2023-01-09T03:51:24.408Z,99899.28
2023-01-09T03:54:26.826Z,99881.22
2023-01-09T03:57:29.262Z,99875.19
2023-01-09T04:00:31.810Z,99879.09
2023-01-09T04:03:34.271Z,99883.25
2023-01-09T04:06:36.668Z,99898.13
2023-01-09T04:09:39.024Z,99902.34
2023-01-09T04:12:41.341Z,99873.75
2023-01-09T04:15:44.130Z,99902.75
2023-01-09T04:18:46.533Z,99899.16
2023-01-09T04:21:48.881Z,99902.69
2023-01-09T04:24:51.303Z,99882.19
2023-01-09T04:27:53.770Z,99903.28
2023-01-09T04:30:56.224Z,99874.91
2023-01-09T04:33:58.610Z,99867.88
2023-01-09T04:37:01.092Z,99861.66
2023-01-09T04:40:08.895Z,99846.28
2023-01-09T04:43:11.263Z,99882.03
2023-01-09T04:46:13.746Z,99881.47
2023-01-09T04:49:16.299Z,99893.19
2023-01-09T04:52:19.999Z,99884.06
2023-01-09T04:55:22.609Z,99841.25
2023-01-09T04:58:24.968Z,99888.19
2023-01-09T05:01:28.027Z,99896.97
2023-01-09T05:04:30.627Z,99860.88
2023-01-09T05:07:33.609Z,99885.78
2023-01-09T05:10:36.104Z,99857.25
2023-01-09T05:13:38.462Z,99858.22
2023-01-09T05:16:40.988Z,99863.16
2023-01-09T05:19:45.531Z,99847.00
2023-01-09T05:22:47.967Z,99855.72
2023-01-09T05:25:50.445Z,99864.03
2023-01-09T05:28:59.121Z,99854.91
2023-01-09T05:32:01.546Z,99880.97
2023-01-09T05:35:04.198Z,99876.41
2023-01-09T05:38:06.557Z,99872.66
2023-01-09T05:41:09.402Z,99856.03
2023-01-09T05:44:14.958Z,99874.56
2023-01-09T05:47:17.385Z,99872.66
2023-01-09T05:50:19.873Z,99879.66
2023-01-09T05:53:22.329Z,99851.94
2023-01-09T05:56:24.781Z,99868.44
2023-01-09T05:59:27.189Z,99854.41
2023-01-09T06:02:29.998Z,99875.47
2023-01-09T06:05:32.784Z,99866.78
2023-01-09T06:08:35.238Z,99845.56
2023-01-09T06:11:38.595Z,99843.88
2023-01-09T06:14:41.068Z,99841.34
2023-01-09T06:17:43.664Z,99839.63
2023-01-09T06:20:46.146Z,99852.13
2023-01-09T06:23:48.565Z,99834.59
2023-01-09T06:26:50.896Z,99850.09
2023-01-09T06:29:53.571Z,99822.53
2023-01-09T06:32:55.952Z,99845.28
2023-01-09T06:35:58.320Z,99798.97
2023-01-09T06:39:01.018Z,99846.13
2023-01-09T06:42:03.828Z,99844.09
2023-01-09T06:45:06.798Z,99847.69
2023-01-09T06:48:10.147Z,99821.38
2023-01-09T06:51:12.499Z,99823.38
2023-01-09T06:54:14.902Z,99826.19
2023-01-09T06:57:17.266Z,99844.16
2023-01-09T07:00:20.053Z,99840.69
2023-01-09T07:03:22.742Z,99833.38
2023-01-09T07:06:25.733Z,99855.28
2023-01-09T07:09:29.734Z,99863.66
2023-01-09T07:12:33.837Z,99839.50
2023-01-09T07:15:37.542Z,99862.88
2023-01-09T07:18:40.978Z,99854.38
2023-01-09T07:21:44.134Z,99844.94
2023-01-09T07:24:47.495Z,99854.03
2023-01-09T07:27:49.962Z,99865.25
2023-01-09T07:30:52.803Z,99855.09
2023-01-09T07:33:55.218Z,99854.66
2023-01-09T07:36:57.586Z,99850.44
2023-01-09T07:40:00.281Z,99832.75
2023-01-09T07:43:03.144Z,99853.53
2023-01-09T07:46:05.725Z,99843.97
2023-01-09T07:49:08.549Z,99849.31
2023-01-09T07:52:11.021Z,99831.81
2023-01-09T07:55:15.586Z,99842.41
2023-01-09T07:58:19.151Z,99841.34
2023-01-09T08:01:21.889Z,99794.78
2023-01-09T08:04:25.092Z,99838.41
2023-01-09T08:07:28.491Z,99834.09
2023-01-09T08:10:32.109Z,99805.19
2023-01-09T08:13:35.212Z,99819.44
2023-01-09T08:16:37.605Z,99799.50
2023-01-09T08:19:40.498Z,99813.81
2023-01-09T08:22:44.128Z,99778.22
2023-01-09T08:25:46.536Z,99794.06
2023-01-09T08:28:48.977Z,99794.88
2023-01-09T08:31:51.494Z,99788.69
2023-01-09T08:34:54.273Z,99762.59
2023-01-09T08:37:56.809Z,99774.25
2023-01-09T08:40:59.257Z,99744.06
2023-01-09T08:44:19.927Z,99762.38
2023-01-09T08:47:24.324Z,99764.59
2023-01-09T08:50:27.253Z,99765.34
2023-01-09T08:53:31.611Z,99782.31
2023-01-09T08:56:34.024Z,99783.28
2023-01-09T08:59:37.306Z,99774.41
2023-01-09T09:02:40.209Z,99777.41
2023-01-09T09:05:44.675Z,99784.84
2023-01-09T09:08:49.056Z,99741.00
2023-01-09T09:11:51.803Z,99765.75
2023-01-09T09:15:12.989Z,99747.22
2023-01-09T09:18:15.657Z,99767.88
2023-01-09T09:21:18.377Z,99747.66
2023-01-09T09:24:20.967Z,99757.44
2023-01-09T09:27:23.409Z,99760.13
2023-01-09T09:30:25.934Z,99745.75
2023-01-09T09:33:28.930Z,99753.56
2023-01-09T09:36:31.382Z,99758.88
2023-01-09T09:39:34.006Z,99726.81
2023-01-09T09:43:12.262Z,99727.16
2023-01-09T09:46:40.846Z,99758.91
2023-01-09T09:50:06.056Z,99754.50
2023-01-09T09:53:24.461Z,99728.50
2023-01-09T09:56:31.247Z,99720.72
2023-01-09T09:59:37.743Z,99735.72
2023-01-09T10:02:52.023Z,99738.75
2023-01-09T10:05:55.726Z,99711.97
2023-01-09T10:09:02.604Z,99725.19
2023-01-09T10:12:08.232Z,99714.53
2023-01-09T10:15:19.730Z,99715.69
2023-01-09T10:18:36.015Z,99725.81
2023-01-09T10:21:48.659Z,99687.06
2023-01-09T10:25:02.582Z,99701.03
2023-01-09T10:28:38.492Z,99673.72
2023-01-09T10:32:02.483Z,99685.66
2023-01-09T10:35:42.804Z,99674.06
2023-01-09T10:38:53.059Z,99667.69
2023-01-09T10:41:55.470Z,99667.88
2023-01-09T10:45:05.799Z,99639.84
2023-01-09T10:48:26.450Z,99664.53
2023-01-09T10:51:38.827Z,99658.44
2023-01-09T10:54:49.437Z,99663.16
2023-01-09T10:57:59.718Z,99663.09
2023-01-09T11:01:03.201Z,99644.66
2023-01-09T11:04:29.472Z,99668.81
2023-01-09T11:07:43.316Z,99638.31
2023-01-09T11:10:48.035Z,99662.56
2023-01-09T11:14:27.672Z,99638.84
2023-01-09T11:17:30.034Z,99620.56
2023-01-09T11:20:32.467Z,99641.59
2023-01-09T11:23:34.983Z,99631.69
2023-01-09T11:26:37.409Z,99612.25
2023-01-09T11:29:41.222Z,99591.31
2023-01-09T11:32:45.595Z,99593.56
2023-01-09T11:36:04.760Z,99619.28
2023-01-09T11:39:29.431Z,99581.59
2023-01-09T11:42:50.585Z,99608.94
2023-01-09T11:46:01.659Z,99592.78
2023-01-09T11:49:24.209Z,99595.19
2023-01-09T11:52:26.749Z,99586.00
2023-01-09T11:55:38.051Z,99599.66
2023-01-09T11:58:45.129Z,99568.31
2023-01-09T12:02:05.679Z,99593.41
2023-01-09T12:05:20.675Z,99598.31
2023-01-09T12:08:39.525Z,99589.81
2023-01-09T12:11:55.265Z,99593.81
2023-01-09T12:14:57.752Z,99604.25
2023-01-09T12:18:23.671Z,99595.06
2023-01-09T12:21:35.196Z,99592.06
2023-01-09T12:24:51.437Z,99589.47
2023-01-09T12:28:31.282Z,99596.97
2023-01-09T12:31:55.297Z,99580.81
2023-01-09T12:35:19.683Z,99576.63
2023-01-09T12:38:22.368Z,99564.81
2023-01-09T12:41:50.761Z,99585.28
2023-01-09T12:45:08.859Z,99577.88
2023-01-09T12:48:29.323Z,99574.19
2023-01-09T12:51:38.756Z,99577.91
2023-01-09T12:54:41.161Z,99549.28
2023-01-09T12:57:53.217Z,99564.72
2023-01-09T13:00:58.597Z,99561.97
2023-01-09T13:04:18.322Z,99572.84
2023-01-09T13:07:26.398Z,99543.91
2023-01-09T13:10:33.298Z,99561.69
2023-01-09T13:13:58.709Z,99556.25
2023-01-09T13:17:06.186Z,99532.91
2023-01-09T13:20:42.862Z,99551.50
2023-01-09T13:23:54.252Z,99536.31
2023-01-09T13:27:03.376Z,99533.03
2023-01-09T13:30:22.626Z,99527.22
2023-01-09T13:33:35.474Z,99514.94
2023-01-09T13:36:40.101Z,99531.00
2023-01-09T13:39:42.571Z,99517.84
2023-01-09T13:42:56.547Z,99510.84
2023-01-09T13:45:58.967Z,99514.06
2023-01-09T13:49:02.109Z,99483.53
2023-01-09T13:52:26.112Z,99503.38
2023-01-09T13:55:35.597Z,99529.22
2023-01-09T13:58:38.182Z,99521.81
2023-01-09T14:01:42.542Z,99497.03
2023-01-09T14:04:45.278Z,99523.03
2023-01-09T14:07:49.941Z,99520.50
2023-01-09T14:10:59.665Z,99525.72
2023-01-09T14:14:04.531Z,99522.13
2023-01-09T14:17:17.259Z,99497.72
2023-01-09T14:20:33.834Z,99524.97
2023-01-09T14:23:51.413Z,99522.13
2023-01-09T14:26:58.342Z,99516.66
2023-01-09T14:30:22.579Z,99517.16
2023-01-09T14:33:35.840Z,99510.03
2023-01-09T14:36:38.413Z,99471.03
2023-01-09T14:39:45.935Z,99517.81
2023-01-09T14:42:53.856Z,99515.09
2023-01-09T14:46:04.165Z,99484.34
2023-01-09T14:49:15.685Z,99511.34
2023-01-09T14:52:30.725Z,99478.59
2023-01-09T14:55:42.322Z,99509.44
2023-01-09T14:58:44.664Z,99493.47
2023-01-09T15:01:51.565Z,99512.13
2023-01-09T15:04:57.074Z,99487.44
2023-01-09T15:08:03.523Z,99518.84
2023-01-09T15:11:06.217Z,99524.16
2023-01-09T15:14:24.377Z,99516.34
2023-01-09T15:17:36.641Z,99510.66
2023-01-09T15:20:39.097Z,99529.97
2023-01-09T15:23:41.512Z,99502.47
2023-01-09T15:26:55.798Z,99535.66
2023-01-09T15:30:16.814Z,99523.97
2023-01-09T15:33:19.334Z,99526.41
2023-01-09T15:36:27.559Z,99533.94
2023-01-09T15:39:36.133Z,99520.81
2023-01-09T15:42:58.113Z,99503.00
2023-01-09T15:46:01.531Z,99489.25
2023-01-09T15:49:04.169Z,99499.63
2023-01-09T15:52:11.849Z,99514.16
2023-01-09T15:55:35.093Z,99509.44
2023-01-09T15:58:40.012Z,99497.56
2023-01-09T16:01:44.859Z,99496.22
2023-01-09T16:04:48.940Z,99508.00
2023-01-09T16:07:51.905Z,99514.81
2023-01-09T16:11:04.090Z,99493.22
2023-01-09T16:14:34.705Z,99513.38
2023-01-09T16:17:37.732Z,99521.91
2023-01-09T16:20:40.190Z,99503.31
2023-01-09T16:23:51.907Z,99508.28
2023-01-09T16:27:23.926Z,99489.13
2023-01-09T16:30:27.788Z,99475.03
2023-01-09T16:33:31.494Z,99516.03
2023-01-09T16:36:35.630Z,99514.22
2023-01-09T16:39:38.793Z,99497.66
2023-01-09T16:42:59.563Z,99501.25
2023-01-09T16:46:02.010Z,99484.88
2023-01-09T16:49:14.040Z,99504.16
2023-01-09T16:52:17.529Z,99500.66
2023-01-09T16:55:19.946Z,99483.56
2023-01-09T16:58:28.745Z,99489.78
2023-01-09T17:01:31.224Z,99495.03
2023-01-09T17:04:33.657Z,99457.13
2023-01-09T17:07:37.840Z,99451.56
2023-01-09T17:10:40.170Z,99449.81
2023-01-09T17:13:42.591Z,99446.56
2023-01-09T17:16:47.630Z,99462.47
2023-01-09T17:19:50.427Z,99456.66
2023-01-09T17:22:52.795Z,99478.25
2023-01-09T17:26:17.134Z,99461.56
2023-01-09T17:29:20.061Z,99473.38
2023-01-09T17:32:22.468Z,99479.25
2023-01-09T17:35:24.798Z,99433.75
2023-01-09T17:38:27.203Z,99473.44
2023-01-09T17:41:31.649Z,99459.25
2023-01-09T17:44:34.240Z,99463.19
2023-01-09T17:47:36.675Z,99452.88
2023-01-09T17:50:39.156Z,99478.44
2023-01-09T17:53:41.502Z,99475.63
2023-01-09T17:56:48.962Z,99485.09
2023-01-09T17:59:51.348Z,99472.44
2023-01-09T18:02:54.905Z,99467.22
2023-01-09T18:05:57.425Z,99467.19
2023-01-09T18:08:59.841Z,99468.66
2023-01-09T18:12:03.294Z,99466.66
2023-01-09T18:15:06.271Z,99442.66
2023-01-09T18:18:08.774Z,99468.19
2023-01-09T18:21:15.659Z,99464.41
2023-01-09T18:24:17.989Z,99469.25
2023-01-09T18:27:20.592Z,99459.75
2023-01-09T18:30:23.129Z,99464.19
2023-01-09T18:33:25.514Z,99467.63
2023-01-09T18:36:30.014Z,99454.94
2023-01-09T18:39:32.876Z,99458.06
2023-01-09T18:42:35.345Z,99457.44
2023-01-09T18:45:38.860Z,99462.38
2023-01-09T18:48:41.274Z,99429.31
2023-01-09T18:51:43.978Z,99436.13
2023-01-09T18:54:46.364Z,99428.38
2023-01-09T18:57:49.015Z,99451.09
2023-01-09T19:00:55.172Z,99432.38
2023-01-09T19:03:59.748Z,99447.41
2023-01-09T19:07:02.166Z,99426.31
2023-01-09T19:10:05.069Z,99425.69
2023-01-09T19:13:07.409Z,99425.03
2023-01-09T19:16:10.590Z,99435.63
2023-01-09T19:19:13.341Z,99448.38
2023-01-09T19:22:15.856Z,99412.97
2023-01-09T19:25:18.225Z,99438.72
2023-01-09T19:28:21.606Z,99404.53
2023-01-09T19:31:26.417Z,99434.56
2023-01-09T19:34:28.922Z,99411.88
2023-01-09T19:37:31.339Z,99420.25
2023-01-09T19:40:33.897Z,99412.38
2023-01-09T19:43:37.214Z,99419.28
2023-01-09T19:46:40.044Z,99407.50
2023-01-09T19:49:42.694Z,99398.69
2023-01-09T19:52:45.485Z,99401.91
2023-01-09T19:55:47.837Z,99420.38
2023-01-09T19:58:51.414Z,99425.72
2023-01-09T20:01:55.275Z,99388.47
2023-01-09T20:04:58.298Z,99426.38
2023-01-09T20:08:03.463Z,99423.56
2023-01-09T20:11:08.908Z,99430.97
2023-01-09T20:14:16.166Z,99421.75
2023-01-09T20:17:19.757Z,99390.56
2023-01-09T20:20:22.673Z,99406.59
2023-01-09T20:23:32.366Z,99404.22
2023-01-09T20:26:36.697Z,99404.16
2023-01-09T20:29:39.345Z,99398.91
2023-01-09T20:32:42.376Z,99382.31
2023-01-09T20:35:44.885Z,99374.28
2023-01-09T20:38:47.583Z,99395.25
2023-01-09T20:41:49.961Z,99390.16
2023-01-09T20:44:52.319Z,99386.72
2023-01-09T20:47:54.824Z,99366.94
2023-01-09T20:51:03.723Z,99359.97
2023-01-09T20:54:06.144Z,99364.38
2023-01-09T20:57:08.500Z,99357.38
2023-01-09T21:00:11.850Z,99370.78
2023-01-09T21:03:16.642Z,99362.50
2023-01-09T21:06:20.729Z,99358.38
2023-01-09T21:09:25.296Z,99375.19
2023-01-09T21:12:28.613Z,99376.38
2023-01-09T21:15:30.969Z,99342.88
2023-01-09T21:18:33.695Z,99356.34
2023-01-09T21:21:36.203Z,99374.84
2023-01-09T21:24:38.685Z,99377.44
2023-01-09T21:27:50.269Z,99379.44
2023-01-09T21:30:54.177Z,99381.25
2023-01-09T21:33:56.663Z,99357.38
2023-01-09T21:36:59.091Z,99378.53
2023-01-09T21:40:02.368Z,99364.28
2023-01-09T21:43:23.168Z,99379.34
2023-01-09T21:46:43.933Z,99365.13
2023-01-09T21:49:46.428Z,99331.06
2023-01-09T21:52:48.813Z,99354.59
2023-01-09T21:55:51.138Z,99351.34
2023-01-09T21:58:53.675Z,99359.94
2023-01-09T22:01:56.341Z,99346.28
2023-01-09T22:05:00.239Z,99370.75
2023-01-09T22:08:02.654Z,99367.09
2023-01-09T22:11:05.422Z,99372.44
2023-01-09T22:14:11.339Z,99367.16
2023-01-09T22:17:13.699Z,99365.59
2023-01-09T22:20:16.181Z,99357.94
2023-01-09T22:23:18.686Z,99336.78
2023-01-09T22:26:21.318Z,99340.84
2023-01-09T22:29:24.208Z,99349.13
2023-01-09T22:32:26.605Z,99325.50
2023-01-09T22:35:29.165Z,99351.72
2023-01-09T22:38:31.873Z,99311.91
2023-01-09T22:41:34.289Z,99334.94
2023-01-09T22:44:36.643Z,99332.69
2023-01-09T22:47:39.056Z,99329.63
2023-01-09T22:50:41.404Z,99330.75
2023-01-09T22:53:45.249Z,99302.16
2023-01-09T22:56:49.642Z,99319.38
2023-01-09T22:59:52.045Z,99308.69
2023-01-09T23:02:54.525Z,99305.09
2023-01-09T23:06:01.606Z,99326.50
2023-01-09T23:09:04.025Z,99329.22
2023-01-09T23:12:06.809Z,99296.50
2023-01-09T23:15:09.561Z,99281.44
2023-01-09T23:18:12.135Z,99277.13
2023-01-09T23:21:14.483Z,99287.22
2023-01-09T23:24:18.418Z,99298.75
2023-01-09T23:27:20.811Z,99304.53
2023-01-09T23:30:23.349Z,99313.94
2023-01-09T23:33:25.824Z,99320.72
2023-01-09T23:36:28.173Z,99283.81
2023-01-09T23:39:30.626Z,99288.34
2023-01-09T23:42:51.418Z,99314.66
2023-01-09T23:45:53.953Z,99298.53
2023-01-09T23:48:56.386Z,99278.72
2023-01-09T23:52:01.613Z,99281.16
2023-01-09T23:55:04.309Z,99283.59
2023-01-09T23:58:07.555Z,99298.53
